Time;durP1;ratioP1;P1;durP2;ratioP2;P2;SDS_P1;SDS_P2;PMS_P1;PMS_P2;Temp;Humidity;BMP_temperature;BMP_pressure;BME280_temperature;BME280_humidity;BME280_pressure;Samples;Min_cycle;Max_cycle;Signal;HPM_P1;HPM_P2
2022/09/02 00:01:53;;;;;;;;;;;19.60;99.90;;;;;;5053744;28;19919;-73
2022/09/02 00:04:20;;;;;;;;;;;19.60;99.90;;;;;;5053942;28;19913;-83
2022/09/02 00:06:47;;;;;;;;;;;19.60;99.90;;;;;;5053641;28;19917;-82
2022/09/02 00:09:14;;;;;;;;;;;19.50;99.90;;;;;;5061525;28;19909;-82
2022/09/02 00:11:41;;;;;;;;;;;19.50;99.90;;;;;;5056815;28;19913;-73
2022/09/02 00:14:08;;;;;;;;;;;19.50;99.90;;;;;;5053470;28;19909;-83
2022/09/02 00:16:33;;;;;;;;;;;19.50;99.90;;;;;;5053642;28;19909;-83
2022/09/02 00:19:00;;;;;;;;;;;19.40;99.90;;;;;;5052730;28;19909;-82
2022/09/02 00:21:26;;;;;;;;;;;19.40;99.90;;;;;;5053585;28;19920;-73
2022/09/02 00:23:51;;;;;;;;;;;19.40;99.90;;;;;;5053342;28;19908;-73
2022/09/02 00:26:17;;;;;;;;;;;19.40;99.90;;;;;;5062780;28;19908;-73
2022/09/02 00:28:42;;;;;;;;;;;19.30;99.90;;;;;;5053574;28;19915;-83
2022/09/02 00:31:08;;;;;;;;;;;19.30;99.90;;;;;;5052959;28;19996;-83
2022/09/02 00:33:34;;;;;;;;;;;19.20;99.90;;;;;;5053261;28;20388;-73
2022/09/02 00:36:00;;;;;;;;;;;19.20;99.90;;;;;;5053128;28;19971;-73
2022/09/02 00:38:26;;;;;;;;;;;19.10;99.90;;;;;;5053539;28;19908;-73
2022/09/02 00:40:52;;;;;;;;;;;19.10;99.90;;;;;;5053059;28;20406;-82
2022/09/02 00:43:36;;;;;;;;;;;19.00;99.90;;;;;;5043814;28;20373;-73
2022/09/02 00:46:02;;;;;;;;;;;19.00;99.90;;;;;;5051009;28;20280;-73
2022/09/02 00:48:27;;;;;;;;;;;19.00;99.90;;;;;;5063949;28;19909;-73
2022/09/02 00:50:53;;;;;;;;;;;19.00;99.90;;;;;;5062429;28;19913;-73
2022/09/02 00:53:19;;;;;;;;;;;18.90;99.90;;;;;;5053189;28;19913;-83
2022/09/02 00:55:46;;;;;;;;;;;18.90;99.90;;;;;;5053148;28;20291;-82
2022/09/02 00:58:17;;;;;;;;;;;18.90;99.90;;;;;;5048847;28;19916;-82
2022/09/02 01:00:45;;;;;;;;;;;18.90;99.90;;;;;;5051945;28;20331;-73
2022/09/02 01:03:13;;;;;;;;;;;18.90;99.90;;;;;;5053011;28;19913;-82
2022/09/02 01:05:41;;;;;;;;;;;18.90;99.90;;;;;;5053016;28;19915;-83
2022/09/02 01:08:06;;;;;;;;;;;18.90;99.90;;;;;;5053089;28;19996;-73
2022/09/02 01:10:33;;;;;;;;;;;18.80;99.90;;;;;;5063870;28;19959;-75
2022/09/02 01:13:07;;;;;;;;;;;18.90;99.90;;;;;;5052754;28;20455;-82
2022/09/02 01:15:36;;;;;;;;;;;18.90;99.90;;;;;;5052827;28;19908;-73
2022/09/02 01:18:03;;;;;;;;;;;18.90;99.90;;;;;;5051438;28;19928;-82
2022/09/02 01:20:28;;;;;;;;;;;19.00;99.90;;;;;;5051948;28;19909;-73
2022/09/02 01:22:54;;;;;;;;;;;19.10;99.90;;;;;;5052558;28;19928;-73
2022/09/02 01:25:21;;;;;;;;;;;19.20;99.90;;;;;;5057803;28;19908;-82
2022/09/02 01:27:47;;;;;;;;;;;19.20;99.90;;;;;;5056040;28;19913;-73
2022/09/02 01:30:21;;;;;;;;;;;19.30;99.90;;;;;;5052579;28;19917;-73
2022/09/02 01:32:47;;;;;;;;;;;19.30;99.90;;;;;;5052583;28;19916;-73
2022/09/02 01:35:13;;;;;;;;;;;19.30;99.90;;;;;;5052864;28;19909;-82
2022/09/02 01:37:38;;;;;;;;;;;19.30;99.90;;;;;;5040774;28;19916;-73
2022/09/02 01:40:05;;;;;;;;;;;19.20;99.90;;;;;;5052734;28;19919;-72
2022/09/02 01:42:31;;;;;;;;;;;19.20;99.90;;;;;;5047814;28;19956;-73
2022/09/02 01:44:56;;;;;;;;;;;19.10;99.90;;;;;;5051749;28;19909;-82
2022/09/02 01:47:23;;;;;;;;;;;19.00;99.90;;;;;;5056079;28;20368;-82
2022/09/02 01:49:49;;;;;;;;;;;18.90;99.90;;;;;;5065735;28;19908;-83
2022/09/02 01:52:15;;;;;;;;;;;18.80;99.90;;;;;;5055305;28;20380;-82
2022/09/02 01:54:40;;;;;;;;;;;18.70;99.90;;;;;;5052752;28;19948;-82
2022/09/02 01:57:06;;;;;;;;;;;18.60;99.90;;;;;;5052485;28;20375;-73
2022/09/02 01:59:31;;;;;;;;;;;18.50;99.90;;;;;;5045517;28;19915;-73
2022/09/02 02:01:57;;;;;;;;;;;18.50;99.90;;;;;;5061723;28;19959;-82
2022/09/02 02:04:23;;;;;;;;;;;18.40;99.90;;;;;;5032572;28;19920;-82
2022/09/02 02:06:49;;;;;;;;;;;18.40;99.90;;;;;;5032665;28;19956;-73
2022/09/02 02:09:16;;;;;;;;;;;18.40;99.90;;;;;;5049668;28;19909;-83
2022/09/02 02:11:41;;;;;;;;;;;18.40;99.90;;;;;;5058291;28;20003;-82
2022/09/02 02:14:07;;;;;;;;;;;18.40;99.90;;;;;;5055604;28;20011;-82
2022/09/02 02:16:32;;;;;;;;;;;18.50;99.90;;;;;;5055856;28;19909;-82
2022/09/02 02:18:58;;;;;;;;;;;18.60;99.90;;;;;;5055578;28;19916;-73
2022/09/02 02:21:23;;;;;;;;;;;18.70;99.90;;;;;;5055895;28;19913;-83
2022/09/02 02:23:49;;;;;;;;;;;18.60;99.90;;;;;;5055443;28;19947;-82
2022/09/02 02:26:15;;;;;;;;;;;18.60;99.90;;;;;;5063939;28;19909;-83
2022/09/02 02:28:41;;;;;;;;;;;18.60;99.90;;;;;;5055733;28;19909;-73
2022/09/02 02:31:06;;;;;;;;;;;18.60;99.90;;;;;;5055190;28;19966;-73
2022/09/02 02:33:34;;;;;;;;;;;18.70;99.90;;;;;;5055498;28;19908;-73
2022/09/02 02:36:00;;;;;;;;;;;18.80;99.90;;;;;;5052531;28;20296;-82
2022/09/02 02:38:25;;;;;;;;;;;18.90;99.90;;;;;;5053621;28;20393;-73
2022/09/02 02:40:56;;;;;;;;;;;18.90;99.90;;;;;;5054800;28;20012;-82
2022/09/02 02:43:22;;;;;;;;;;;18.90;99.90;;;;;;5046707;28;19952;-82
2022/09/02 02:45:48;;;;;;;;;;;18.90;99.90;;;;;;5066897;28;19959;-73
2022/09/02 02:48:13;;;;;;;;;;;18.80;99.90;;;;;;5063444;28;19912;-73
2022/09/02 02:50:39;;;;;;;;;;;18.70;99.90;;;;;;5063589;28;19909;-82
2022/09/02 02:53:04;;;;;;;;;;;18.70;99.90;;;;;;5055262;28;20303;-82
2022/09/02 02:55:30;;;;;;;;;;;18.60;99.90;;;;;;5055162;28;19908;-72
2022/09/02 02:57:55;;;;;;;;;;;18.60;99.90;;;;;;5055015;28;19915;-73
2022/09/02 03:00:25;;;;;;;;;;;18.70;99.90;;;;;;5051707;28;20302;-73
2022/09/02 03:03:09;;;;;;;;;;;18.70;99.90;;;;;;5052377;28;19913;-73
2022/09/02 03:05:36;;;;;;;;;;;18.70;99.90;;;;;;5042481;28;19920;-76
2022/09/02 03:08:06;;;;;;;;;;;18.70;99.90;;;;;;5054998;28;19943;-82
2022/09/02 03:10:32;;;;;;;;;;;18.60;99.90;;;;;;5065692;28;19909;-73
2022/09/02 03:12:58;;;;;;;;;;;18.60;99.90;;;;;;5053710;28;20030;-73
2022/09/02 03:15:24;;;;;;;;;;;18.60;99.90;;;;;;5043190;28;19916;-73
2022/09/02 03:17:50;;;;;;;;;;;18.50;99.90;;;;;;5054716;28;19913;-82
2022/09/02 03:20:17;;;;;;;;;;;18.40;99.90;;;;;;5053915;28;19908;-82
2022/09/02 03:22:43;;;;;;;;;;;18.40;99.90;;;;;;5054545;28;19913;-72
2022/09/02 03:25:10;;;;;;;;;;;18.30;99.90;;;;;;5057976;28;19916;-73
2022/09/02 03:27:36;;;;;;;;;;;18.30;99.90;;;;;;5059050;28;19908;-79
2022/09/02 03:30:02;;;;;;;;;;;18.20;99.90;;;;;;5052866;28;19935;-82
2022/09/02 03:32:27;;;;;;;;;;;18.20;99.90;;;;;;5053059;28;20276;-82
2022/09/02 03:34:53;;;;;;;;;;;18.20;99.90;;;;;;5054425;28;19909;-83
2022/09/02 03:37:19;;;;;;;;;;;18.20;99.90;;;;;;5052212;28;19948;-73
2022/09/02 03:39:44;;;;;;;;;;;18.10;99.90;;;;;;5054362;28;20394;-82
2022/09/02 03:42:10;;;;;;;;;;;18.10;99.90;;;;;;5052124;28;19917;-83
2022/09/02 03:44:35;;;;;;;;;;;18.10;99.90;;;;;;5047586;28;19908;-81
2022/09/02 03:47:01;;;;;;;;;;;18.20;99.90;;;;;;5058568;28;19941;-82
2022/09/02 03:49:27;;;;;;;;;;;18.20;99.90;;;;;;5062653;28;20430;-82
2022/09/02 03:51:52;;;;;;;;;;;18.20;99.90;;;;;;5058840;28;19919;-73
2022/09/02 03:54:18;;;;;;;;;;;18.10;99.90;;;;;;5054112;28;20288;-83
2022/09/02 03:56:43;;;;;;;;;;;18.10;99.90;;;;;;5053859;28;19955;-73
2022/09/02 03:59:09;;;;;;;;;;;18.10;99.90;;;;;;5044881;28;20360;-82
2022/09/02 04:01:35;;;;;;;;;;;18.10;99.90;;;;;;5052822;28;20023;-82
2022/09/02 04:04:01;;;;;;;;;;;18.00;99.90;;;;;;5054176;28;19975;-73
2022/09/02 04:06:26;;;;;;;;;;;18.00;99.90;;;;;;5054087;28;19916;-82
2022/09/02 04:08:52;;;;;;;;;;;18.00;99.90;;;;;;5058788;28;19908;-82
2022/09/02 04:11:19;;;;;;;;;;;18.00;99.90;;;;;;5058238;28;19959;-82
2022/09/02 04:13:45;;;;;;;;;;;18.00;99.90;;;;;;5053829;28;19920;-82
2022/09/02 04:16:12;;;;;;;;;;;17.90;99.90;;;;;;5053627;28;19909;-72
2022/09/02 04:18:38;;;;;;;;;;;18.00;99.90;;;;;;5052495;28;19919;-73
2022/09/02 04:21:04;;;;;;;;;;;18.00;99.90;;;;;;5053645;28;19912;-82
2022/09/02 04:23:30;;;;;;;;;;;18.10;99.90;;;;;;5053353;28;20011;-82
2022/09/02 04:25:56;;;;;;;;;;;18.10;99.90;;;;;;5062652;28;20368;-82
2022/09/02 04:28:21;;;;;;;;;;;18.10;99.90;;;;;;5053587;28;19955;-82
2022/09/02 04:30:46;;;;;;;;;;;18.10;99.90;;;;;;5053111;28;19921;-82
2022/09/02 04:33:12;;;;;;;;;;;18.10;99.90;;;;;;5049025;28;19909;-73
2022/09/02 04:35:41;;;;;;;;;;;18.20;99.90;;;;;;5051821;28;20299;-81
2022/09/02 04:38:07;;;;;;;;;;;18.20;99.90;;;;;;5049467;28;19913;-73
2022/09/02 04:40:33;;;;;;;;;;;18.30;99.90;;;;;;5053194;28;20427;-81
2022/09/02 04:42:59;;;;;;;;;;;18.30;99.90;;;;;;5052909;28;19920;-73
2022/09/02 04:45:25;;;;;;;;;;;18.30;99.90;;;;;;5066030;28;20405;-73
2022/09/02 04:47:50;;;;;;;;;;;18.30;99.90;;;;;;5058914;28;19954;-73
2022/09/02 04:50:16;;;;;;;;;;;18.30;99.90;;;;;;5066179;28;20474;-82
2022/09/02 04:52:41;;;;;;;;;;;18.30;99.90;;;;;;5053213;28;19913;-82
2022/09/02 04:55:08;;;;;;;;;;;18.30;99.90;;;;;;5052775;28;19923;-72
2022/09/02 04:57:33;;;;;;;;;;;18.30;99.90;;;;;;5052997;28;20349;-73
2022/09/02 05:00:00;;;;;;;;;;;18.30;99.90;;;;;;5046423;28;19913;-73
2022/09/02 05:02:26;;;;;;;;;;;18.30;99.90;;;;;;5053147;28;20368;-82
2022/09/02 05:04:51;;;;;;;;;;;18.40;99.90;;;;;;5052945;28;19908;-73
2022/09/02 05:07:17;;;;;;;;;;;18.40;99.90;;;;;;5053071;28;19909;-82
2022/09/02 05:09:43;;;;;;;;;;;18.40;99.90;;;;;;5063734;28;19908;-72
2022/09/02 05:12:10;;;;;;;;;;;18.20;99.90;;;;;;5052410;28;20275;-82
2022/09/02 05:14:35;;;;;;;;;;;18.00;99.90;;;;;;5052752;28;20002;-73
2022/09/02 05:17:01;;;;;;;;;;;17.80;99.90;;;;;;5052943;28;20280;-73
2022/09/02 05:19:27;;;;;;;;;;;17.80;99.90;;;;;;5052476;28;20092;-82
2022/09/02 05:21:54;;;;;;;;;;;17.80;99.90;;;;;;5052739;28;19913;-72
2022/09/02 05:24:20;;;;;;;;;;;17.80;99.90;;;;;;5052496;28;19915;-72
2022/09/02 05:26:46;;;;;;;;;;;17.80;99.90;;;;;;5061335;28;19987;-79
2022/09/02 05:29:12;;;;;;;;;;;17.80;99.90;;;;;;5051103;28;19909;-79
2022/09/02 05:31:39;;;;;;;;;;;17.80;99.90;;;;;;5052371;28;19971;-79
2022/09/02 05:34:04;;;;;;;;;;;17.80;99.90;;;;;;5037551;28;19913;-72
2022/09/02 05:36:31;;;;;;;;;;;17.80;99.90;;;;;;5040747;28;20318;-72
2022/09/02 05:38:58;;;;;;;;;;;17.70;99.90;;;;;;5049963;28;19977;-80
2022/09/02 05:41:24;;;;;;;;;;;17.60;99.90;;;;;;5052288;28;19920;-81
2022/09/02 05:43:50;;;;;;;;;;;17.70;99.90;;;;;;5039866;28;19916;-72
2022/09/02 05:46:17;;;;;;;;;;;17.80;99.90;;;;;;5067297;28;19951;-80
2022/09/02 05:51:27;;;;;;;;;;;17.90;99.90;;;;;;5059484;28;19963;-81
2022/09/02 05:53:54;;;;;;;;;;;18.10;99.90;;;;;;5056095;28;19917;-72
2022/09/02 05:56:20;;;;;;;;;;;18.20;99.90;;;;;;5055638;28;20364;-81
2022/09/02 05:58:45;;;;;;;;;;;18.20;99.90;;;;;;5055598;28;19913;-82
2022/09/02 06:01:12;;;;;;;;;;;18.10;99.90;;;;;;5055366;28;20356;-72
2022/09/02 06:03:38;;;;;;;;;;;18.10;99.90;;;;;;5055586;28;19909;-73
2022/09/02 06:06:03;;;;;;;;;;;18.20;99.90;;;;;;5055779;28;19920;-81
2022/09/02 06:08:29;;;;;;;;;;;18.30;99.90;;;;;;5057275;28;19909;-81
2022/09/02 06:10:54;;;;;;;;;;;18.40;99.90;;;;;;5064468;28;20379;-82
2022/09/02 06:13:21;;;;;;;;;;;18.50;99.90;;;;;;5055126;28;19913;-82
2022/09/02 06:15:47;;;;;;;;;;;18.60;99.90;;;;;;5048930;28;20360;-72
2022/09/02 06:18:13;;;;;;;;;;;18.70;99.90;;;;;;5052911;28;19913;-82
2022/09/02 06:20:42;;;;;;;;;;;18.80;99.90;;;;;;5053049;28;20334;-73
2022/09/02 06:23:07;;;;;;;;;;;18.90;99.90;;;;;;5054909;28;19964;-81
2022/09/02 06:25:40;;;;;;;;;;;19.00;99.90;;;;;;5061849;28;19943;-73
2022/09/02 06:28:06;;;;;;;;;;;19.20;99.90;;;;;;5056283;28;20003;-73
2022/09/02 06:30:33;;;;;;;;;;;19.30;99.90;;;;;;5053932;28;19921;-82
2022/09/02 06:32:58;;;;;;;;;;;19.50;99.90;;;;;;5048906;28;20371;-82
2022/09/02 06:35:24;;;;;;;;;;;19.70;99.90;;;;;;5034995;28;20020;-82
2022/09/02 06:37:50;;;;;;;;;;;19.90;99.90;;;;;;5034827;28;19909;-82
2022/09/02 06:40:18;;;;;;;;;;;20.00;99.90;;;;;;5054460;28;19912;-73
2022/09/02 06:42:43;;;;;;;;;;;20.00;99.90;;;;;;5049316;28;19971;-82
2022/09/02 06:45:09;;;;;;;;;;;20.10;99.90;;;;;;5057476;28;20375;-82
2022/09/02 06:47:34;;;;;;;;;;;20.20;99.90;;;;;;5056952;28;19912;-82
2022/09/02 06:50:01;;;;;;;;;;;20.30;99.90;;;;;;5067532;28;19908;-80
2022/09/02 06:52:27;;;;;;;;;;;20.20;99.90;;;;;;5055486;28;19959;-72
2022/09/02 06:54:53;;;;;;;;;;;20.30;99.90;;;;;;5054057;28;19908;-73
2022/09/02 06:57:19;;;;;;;;;;;20.60;99.90;;;;;;5054540;28;19964;-82
2022/09/02 06:59:45;;;;;;;;;;;21.00;99.90;;;;;;5052341;28;19973;-73
2022/09/02 07:02:11;;;;;;;;;;;21.20;99.90;;;;;;5064752;28;19924;-82
2022/09/02 07:07:20;;;;;;;;;;;21.30;99.90;;;;;;5049954;28;19916;-73
2022/09/02 07:09:46;;;;;;;;;;;21.10;99.90;;;;;;5054009;28;19913;-80
2022/09/02 07:12:13;;;;;;;;;;;21.00;99.90;;;;;;5061570;28;19909;-73
2022/09/02 07:14:40;;;;;;;;;;;20.60;99.90;;;;;;5060036;28;19908;-73
2022/09/02 07:17:06;;;;;;;;;;;20.30;99.90;;;;;;5061146;28;19908;-72
2022/09/02 07:19:31;;;;;;;;;;;19.90;99.90;;;;;;5058709;28;19923;-74
2022/09/02 07:21:57;;;;;;;;;;;19.70;99.90;;;;;;5053635;28;20039;-73
2022/09/02 07:24:23;;;;;;;;;;;19.50;99.90;;;;;;5057148;28;19939;-80
2022/09/02 07:26:48;;;;;;;;;;;19.30;99.90;;;;;;5061572;28;19912;-79
2022/09/02 07:29:15;;;;;;;;;;;19.20;99.90;;;;;;5063356;28;19920;-73
2022/09/02 07:31:42;;;;;;;;;;;19.10;99.90;;;;;;5055419;28;19947;-79
2022/09/02 07:34:08;;;;;;;;;;;19.10;99.90;;;;;;5066405;28;19909;-72
2022/09/02 07:36:35;;;;;;;;;;;19.10;99.90;;;;;;5066394;28;19908;-79
2022/09/02 07:39:01;;;;;;;;;;;19.20;99.90;;;;;;5056023;28;19921;-79
2022/09/02 07:41:26;;;;;;;;;;;19.20;99.90;;;;;;5046878;28;19928;-80
2022/09/02 07:43:52;;;;;;;;;;;19.30;99.90;;;;;;5054063;28;19970;-72
2022/09/02 07:46:18;;;;;;;;;;;19.50;99.90;;;;;;5045521;28;19917;-73
2022/09/02 07:48:43;;;;;;;;;;;19.60;99.90;;;;;;5058191;28;20329;-81
2022/09/02 07:51:09;;;;;;;;;;;19.80;99.90;;;;;;5058994;28;19917;-82
2022/09/02 07:53:35;;;;;;;;;;;20.00;99.90;;;;;;5052889;28;20299;-72
2022/09/02 07:56:01;;;;;;;;;;;20.40;99.90;;;;;;5053048;28;19909;-82
2022/09/02 07:58:27;;;;;;;;;;;22.40;99.90;;;;;;5051649;28;19909;-74
2022/09/02 08:00:55;;;;;;;;;;;24.90;99.90;;;;;;5051049;28;19916;-83
2022/09/02 08:03:22;;;;;;;;;;;26.60;99.90;;;;;;5052194;28;20364;-83
2022/09/02 08:05:47;;;;;;;;;;;27.80;99.90;;;;;;5053139;28;19924;-73
2022/09/02 08:08:14;;;;;;;;;;;28.40;99.90;;;;;;5052947;28;19912;-73
2022/09/02 08:10:40;;;;;;;;;;;28.60;99.90;;;;;;5063841;28;20000;-74
2022/09/02 08:13:06;;;;;;;;;;;29.60;99.90;;;;;;5050528;28;20439;-85
2022/09/02 08:15:32;;;;;;;;;;;30.10;99.90;;;;;;5052429;28;19909;-85
2022/09/02 08:17:58;;;;;;;;;;;29.80;99.90;;;;;;5052338;28;19908;-86
2022/09/02 08:20:23;;;;;;;;;;;29.90;99.90;;;;;;5052027;28;20402;-74
2022/09/02 08:22:49;;;;;;;;;;;29.90;99.90;;;;;;5050703;28;19916;-73
2022/09/02 08:25:17;;;;;;;;;;;29.70;99.90;;;;;;5056151;28;19923;-73
2022/09/02 08:27:44;;;;;;;;;;;30.20;99.90;;;;;;5056193;28;20004;-74
2022/09/02 08:30:10;;;;;;;;;;;30.00;99.80;;;;;;5052011;28;19916;-73
2022/09/02 08:32:36;;;;;;;;;;;29.80;99.90;;;;;;5051029;28;19919;-73
2022/09/02 08:35:03;;;;;;;;;;;29.70;99.60;;;;;;5051213;28;19916;-83
2022/09/02 08:37:30;;;;;;;;;;;29.30;99.90;;;;;;5050177;28;20284;-74
2022/09/02 08:39:55;;;;;;;;;;;29.70;99.90;;;;;;5054936;28;19934;-82
2022/09/02 08:42:23;;;;;;;;;;;29.70;99.90;;;;;;5049808;28;19917;-75
2022/09/02 08:44:53;;;;;;;;;;;30.00;99.90;;;;;;5060536;28;19916;-81
2022/09/02 08:47:21;;;;;;;;;;;29.80;99.90;;;;;;5056001;28;19947;-82
2022/09/02 08:49:48;;;;;;;;;;;29.80;99.70;;;;;;5063227;28;19916;-82
2022/09/02 08:52:40;;;;;;;;;;;29.30;99.90;;;;;;5055978;28;20295;-74
2022/09/02 08:55:09;;;;;;;;;;;29.70;99.90;;;;;;5046476;28;19916;-81
2022/09/02 08:57:35;;;;;;;;;;;29.90;99.20;;;;;;5052989;28;19913;-82
2022/09/02 09:00:01;;;;;;;;;;;28.60;99.90;;;;;;5050736;28;19909;-82
2022/09/02 09:02:26;;;;;;;;;;;28.50;99.90;;;;;;5051333;28;19917;-74
2022/09/02 09:05:11;;;;;;;;;;;26.40;99.90;;;;;;5052155;28;20299;-74
2022/09/02 09:07:58;;;;;;;;;;;24.90;99.90;;;;;;5052287;28;19998;-74
2022/09/02 09:10:30;;;;;;;;;;;27.80;99.90;;;;;;5062801;28;19940;-74
2022/09/02 09:12:55;;;;;;;;;;;27.30;99.90;;;;;;5051366;28;20507;-82
2022/09/02 09:15:28;;;;;;;;;;;29.00;99.90;;;;;;5051635;28;19909;-82
2022/09/02 09:17:56;;;;;;;;;;;29.60;99.60;;;;;;5049787;28;20010;-74
2022/09/02 09:20:26;;;;;;;;;;;29.90;99.20;;;;;;5055538;28;19912;-82
2022/09/02 09:22:57;;;;;;;;;;;27.00;99.90;;;;;;5054980;28;19936;-81
2022/09/02 09:25:29;;;;;;;;;;;24.80;99.90;;;;;;5058812;28;19916;-81
2022/09/02 09:27:55;;;;;;;;;;;26.40;99.90;;;;;;5059880;28;19913;-82
2022/09/02 09:30:21;;;;;;;;;;;27.60;99.90;;;;;;5054920;28;19960;-73
2022/09/02 09:32:56;;;;;;;;;;;28.30;99.90;;;;;;5054919;28;20283;-80
2022/09/02 09:35:22;;;;;;;;;;;27.00;99.90;;;;;;5055550;28;19915;-82
2022/09/02 09:37:51;;;;;;;;;;;28.40;99.90;;;;;;5053804;28;19913;-83
2022/09/02 09:40:16;;;;;;;;;;;27.70;99.90;;;;;;5058913;28;19909;-84
2022/09/02 09:42:43;;;;;;;;;;;28.40;99.90;;;;;;5052020;28;19913;-74
2022/09/02 09:45:27;;;;;;;;;;;29.40;99.20;;;;;;5065239;28;19913;-84
2022/09/02 09:48:06;;;;;;;;;;;29.70;98.80;;;;;;5053940;28;19950;-74
2022/09/02 09:50:31;;;;;;;;;;;30.10;96.90;;;;;;5063808;28;20287;-85
2022/09/02 09:53:13;;;;;;;;;;;29.10;98.50;;;;;;5055068;28;20007;-84
2022/09/02 09:55:48;;;;;;;;;;;28.90;98.60;;;;;;5055133;28;19951;-73
2022/09/02 09:58:14;;;;;;;;;;;27.80;99.90;;;;;;5054850;28;19913;-83
2022/09/02 10:00:40;;;;;;;;;;;29.00;99.40;;;;;;5052703;28;20056;-83
2022/09/02 10:03:07;;;;;;;;;;;29.60;97.40;;;;;;5054125;28;20517;-84
2022/09/02 10:05:37;;;;;;;;;;;28.40;98.90;;;;;;5054764;28;19909;-84
2022/09/02 10:08:18;;;;;;;;;;;28.40;99.00;;;;;;5055091;28;19913;-74
2022/09/02 10:11:13;;;;;;;;;;;27.40;99.80;;;;;;5053602;28;19968;-77
2022/09/02 10:13:38;;;;;;;;;;;28.20;99.50;;;;;;5044301;28;19913;-74
2022/09/02 10:16:03;;;;;;;;;;;27.30;99.90;;;;;;5051183;28;20583;-73
2022/09/02 10:18:58;;;;;;;;;;;26.90;99.90;;;;;;5053506;28;19959;-84
2022/09/02 10:21:24;;;;;;;;;;;26.20;99.90;;;;;;5042360;28;19916;-74
2022/09/02 10:23:52;;;;;;;;;;;25.70;99.90;;;;;;5054137;28;20319;-85
2022/09/02 10:26:26;;;;;;;;;;;25.50;99.90;;;;;;5062323;28;19959;-85
2022/09/02 10:28:55;;;;;;;;;;;24.70;99.90;;;;;;5053950;28;19931;-74
2022/09/02 10:31:20;;;;;;;;;;;24.90;99.90;;;;;;5052933;28;19921;-81
2022/09/02 10:33:46;;;;;;;;;;;25.20;99.90;;;;;;5051080;28;20394;-73
2022/09/02 10:36:27;;;;;;;;;;;25.30;99.90;;;;;;5052824;28;20062;-74
2022/09/02 10:38:53;;;;;;;;;;;25.00;99.90;;;;;;5055289;28;20371;-74
2022/09/02 10:41:19;;;;;;;;;;;25.20;99.90;;;;;;5055226;28;19943;-74
2022/09/02 10:43:58;;;;;;;;;;;25.20;99.90;;;;;;5041908;28;19955;-75
2022/09/02 10:46:24;;;;;;;;;;;25.40;99.90;;;;;;5043019;28;20371;-74
2022/09/02 10:48:56;;;;;;;;;;;24.90;99.90;;;;;;5065921;28;19909;-74
2022/09/02 10:51:27;;;;;;;;;;;24.90;99.90;;;;;;5062530;28;19913;-86
2022/09/02 10:53:53;;;;;;;;;;;24.80;99.90;;;;;;5054855;28;19920;-74
2022/09/02 10:56:22;;;;;;;;;;;24.90;99.90;;;;;;5055059;28;19909;-74
2022/09/02 10:59:01;;;;;;;;;;;24.40;99.90;;;;;;5050682;28;20040;-74
2022/09/02 11:01:32;;;;;;;;;;;24.70;99.90;;;;;;5053986;28;19909;-85
2022/09/02 11:04:02;;;;;;;;;;;24.80;99.90;;;;;;5054763;28;19995;-74
2022/09/02 11:06:29;;;;;;;;;;;25.00;99.90;;;;;;5053421;28;20295;-84
2022/09/02 11:08:58;;;;;;;;;;;25.00;99.90;;;;;;5060065;28;19912;-85
2022/09/02 11:11:35;;;;;;;;;;;24.80;99.90;;;;;;5059172;28;19913;-85
2022/09/02 11:14:08;;;;;;;;;;;24.70;99.90;;;;;;5054463;28;19916;-76
2022/09/02 11:16:40;;;;;;;;;;;24.70;99.90;;;;;;5050812;28;20411;-84
2022/09/02 11:19:13;;;;;;;;;;;25.20;99.90;;;;;;5042105;28;19925;-84
2022/09/02 11:21:46;;;;;;;;;;;25.70;99.90;;;;;;5032755;28;19956;-86
2022/09/02 11:24:14;;;;;;;;;;;26.10;99.90;;;;;;5034082;28;19959;-83
2022/09/02 11:26:48;;;;;;;;;;;26.10;99.90;;;;;;5058247;28;19909;-74
2022/09/02 11:29:19;;;;;;;;;;;25.50;99.90;;;;;;5053791;28;19909;-85
2022/09/02 11:31:57;;;;;;;;;;;25.10;99.90;;;;;;5053570;28;20370;-85
2022/09/02 11:34:33;;;;;;;;;;;25.10;99.90;;;;;;5053137;28;19916;-85
2022/09/02 11:37:03;;;;;;;;;;;25.50;99.90;;;;;;5054038;28;20376;-84
2022/09/02 11:39:29;;;;;;;;;;;25.50;99.90;;;;;;5052907;28;20334;-74
2022/09/02 11:42:13;;;;;;;;;;;25.20;99.90;;;;;;5053685;28;19917;-85
2022/09/02 11:44:47;;;;;;;;;;;25.20;99.90;;;;;;5049049;28;19912;-85
2022/09/02 11:47:23;;;;;;;;;;;24.90;99.90;;;;;;5055680;28;19995;-86
2022/09/02 11:50:00;;;;;;;;;;;25.00;99.90;;;;;;5066549;28;19908;-85
2022/09/02 11:52:44;;;;;;;;;;;24.80;99.90;;;;;;5054848;28;20372;-75
2022/09/02 11:55:20;;;;;;;;;;;24.80;99.90;;;;;;5051832;28;19913;-85
2022/09/02 11:57:56;;;;;;;;;;;24.60;99.90;;;;;;5051955;28;19909;-85
2022/09/02 12:00:35;;;;;;;;;;;24.40;99.90;;;;;;5048021;28;19951;-84
2022/09/02 12:03:04;;;;;;;;;;;24.20;99.90;;;;;;5033430;28;19921;-85
2022/09/02 12:05:29;;;;;;;;;;;24.40;99.90;;;;;;5033323;28;19948;-74
2022/09/02 12:07:56;;;;;;;;;;;24.30;99.90;;;;;;5033498;28;19967;-85
2022/09/02 12:10:47;;;;;;;;;;;24.50;99.90;;;;;;5061806;28;19962;-85
2022/09/02 12:13:32;;;;;;;;;;;24.90;99.90;;;;;;5052731;28;19931;-83
2022/09/02 12:16:22;;;;;;;;;;;24.20;99.90;;;;;;5053047;28;19915;-86
2022/09/02 12:18:52;;;;;;;;;;;24.10;99.90;;;;;;5053143;28;19913;-75
2022/09/02 12:21:19;;;;;;;;;;;24.10;99.90;;;;;;5053054;28;20012;-85
2022/09/02 12:23:48;;;;;;;;;;;23.90;99.90;;;;;;5052870;28;19916;-84
2022/09/02 12:26:15;;;;;;;;;;;24.00;99.90;;;;;;5062304;28;19952;-82
2022/09/02 12:28:42;;;;;;;;;;;24.10;99.90;;;;;;5053225;28;19946;-82
2022/09/02 12:31:10;;;;;;;;;;;24.20;99.90;;;;;;5052480;28;19936;-74
2022/09/02 12:33:43;;;;;;;;;;;23.90;99.90;;;;;;5042850;28;19939;-74
2022/09/02 12:36:29;;;;;;;;;;;23.90;99.90;;;;;;5049534;28;19916;-86
2022/09/02 12:39:14;;;;;;;;;;;23.70;99.90;;;;;;5052465;28;19916;-84
2022/09/02 12:41:42;;;;;;;;;;;23.90;99.90;;;;;;5041411;28;20415;-85
2022/09/02 12:44:16;;;;;;;;;;;24.10;99.90;;;;;;5039450;28;19917;-74
2022/09/02 12:46:41;;;;;;;;;;;23.90;99.90;;;;;;5052565;28;20356;-74
2022/09/02 12:49:13;;;;;;;;;;;24.00;99.90;;;;;;5063304;28;19952;-84
2022/09/02 12:52:00;;;;;;;;;;;24.20;99.90;;;;;;5058876;28;19913;-85
2022/09/02 12:54:41;;;;;;;;;;;24.00;99.90;;;;;;5050165;28;20384;-85
2022/09/02 12:57:07;;;;;;;;;;;24.20;99.90;;;;;;5051253;28;19909;-75
2022/09/02 12:59:37;;;;;;;;;;;24.30;99.90;;;;;;5045788;28;20367;-74
2022/09/02 13:02:15;;;;;;;;;;;24.60;99.90;;;;;;5052283;28;19917;-85
2022/09/02 13:04:59;;;;;;;;;;;24.50;99.90;;;;;;5052888;28;19908;-87
2022/09/02 13:07:45;;;;;;;;;;;24.10;99.90;;;;;;5052753;28;19935;-85
2022/09/02 13:10:27;;;;;;;;;;;24.60;99.90;;;;;;5064136;28;20368;-75
2022/09/02 13:13:02;;;;;;;;;;;24.50;99.90;;;;;;5052555;28;19909;-86
2022/09/02 13:15:38;;;;;;;;;;;24.70;99.90;;;;;;5052128;28;19955;-86
2022/09/02 13:18:10;;;;;;;;;;;24.50;99.90;;;;;;5051875;28;20296;-86
2022/09/02 13:20:35;;;;;;;;;;;23.90;99.90;;;;;;5051313;28;19920;-85
2022/09/02 13:23:20;;;;;;;;;;;24.00;99.90;;;;;;5051460;28;19913;-86
2022/09/02 13:25:48;;;;;;;;;;;24.20;99.90;;;;;;5059065;28;20349;-75
2022/09/02 13:28:16;;;;;;;;;;;24.00;99.90;;;;;;5052769;28;20004;-86
2022/09/02 13:30:51;;;;;;;;;;;24.30;99.90;;;;;;5051153;28;20020;-87
2022/09/02 13:33:16;;;;;;;;;;;24.50;99.90;;;;;;5033030;28;19909;-87
2022/09/02 13:35:42;;;;;;;;;;;24.60;99.90;;;;;;5031277;28;19920;-76
2022/09/02 13:38:09;;;;;;;;;;;23.90;99.90;;;;;;5034353;28;20012;-75
2022/09/02 13:40:35;;;;;;;;;;;24.20;99.90;;;;;;5052704;28;20386;-87
2022/09/02 13:43:02;;;;;;;;;;;24.00;99.90;;;;;;5045040;28;19913;-87
2022/09/02 13:45:29;;;;;;;;;;;23.80;99.90;;;;;;5059087;28;19918;-87
2022/09/02 13:47:56;;;;;;;;;;;23.90;99.90;;;;;;5058738;28;19917;-75
2022/09/02 13:50:25;;;;;;;;;;;23.70;99.90;;;;;;5063906;28;19995;-75
2022/09/02 13:52:53;;;;;;;;;;;24.00;99.90;;;;;;5052309;28;19975;-86
2022/09/02 13:55:19;;;;;;;;;;;24.30;99.90;;;;;;5041557;28;19971;-87
2022/09/02 13:57:53;;;;;;;;;;;24.20;99.90;;;;;;5051999;28;20380;-87
2022/09/02 14:00:39;;;;;;;;;;;24.20;99.90;;;;;;5045123;28;19909;-86
2022/09/02 14:03:23;;;;;;;;;;;24.40;99.90;;;;;;5050339;28;19935;-74
2022/09/02 14:05:51;;;;;;;;;;;24.50;99.90;;;;;;5044479;28;19913;-86
2022/09/02 14:08:27;;;;;;;;;;;24.60;99.90;;;;;;5056209;28;19995;-86
2022/09/02 14:10:53;;;;;;;;;;;24.40;99.90;;;;;;5065642;28;19909;-87
2022/09/02 14:13:20;;;;;;;;;;;24.20;99.90;;;;;;5055537;28;19916;-84
2022/09/02 14:15:45;;;;;;;;;;;24.30;99.90;;;;;;5055515;28;20283;-75
2022/09/02 14:18:15;;;;;;;;;;;24.20;99.90;;;;;;5055741;28;19908;-87
2022/09/02 14:20:53;;;;;;;;;;;24.50;99.90;;;;;;5054046;28;20007;-87
2022/09/02 14:23:18;;;;;;;;;;;24.30;99.90;;;;;;5055132;28;19912;-87
2022/09/02 14:25:48;;;;;;;;;;;24.50;99.90;;;;;;5063596;28;20291;-75
2022/09/02 14:28:18;;;;;;;;;;;24.60;99.90;;;;;;5042187;28;19909;-74
2022/09/02 14:30:52;;;;;;;;;;;25.00;99.90;;;;;;5055178;28;19920;-74